createdAt,value
2022-12-04T00:01:11.968Z,102219.06
2022-12-04T00:03:39.793Z,102225.91
2022-12-04T00:06:09.241Z,102216.50
2022-12-04T00:08:36.712Z,102204.41
2022-12-04T00:11:06.255Z,102222.88
2022-12-04T00:13:34.286Z,102227.72
2022-12-04T00:16:01.575Z,102231.88
2022-12-04T00:18:28.484Z,102223.25
2022-12-04T00:20:55.384Z,102230.91
2022-12-04T00:23:22.291Z,102227.53
2022-12-04T00:25:49.231Z,102228.50
2022-12-04T00:28:17.831Z,102227.53
2022-12-04T00:30:46.039Z,102234.34
2022-12-04T00:33:13.911Z,102210.81
2022-12-04T00:35:41.304Z,102225.84
2022-12-04T00:38:08.189Z,102231.66
2022-12-04T00:40:35.065Z,102218.16
2022-12-04T00:43:01.944Z,102218.16
2022-12-04T00:45:28.972Z,102203.94
2022-12-04T00:47:55.920Z,102215.59
2022-12-04T00:50:22.946Z,102211.31
2022-12-04T00:52:49.827Z,102218.34
2022-12-04T00:55:16.765Z,102224.47
2022-12-04T00:57:43.666Z,102214.19
2022-12-04T01:00:10.829Z,102214.19
2022-12-04T01:02:37.729Z,102214.88
2022-12-04T01:05:05.035Z,102204.50
2022-12-04T01:07:31.945Z,102206.19
2022-12-04T01:09:58.935Z,102196.09
2022-12-04T01:12:25.900Z,102202.22
2022-12-04T01:14:52.793Z,102203.41
2022-12-04T01:17:19.703Z,102195.09
2022-12-04T01:19:46.672Z,102196.69
2022-12-04T01:22:13.578Z,102196.09
2022-12-04T01:24:40.499Z,102204.78
2022-12-04T01:27:07.370Z,102211.50
2022-12-04T01:29:34.470Z,102207.56
2022-12-04T01:32:01.416Z,102196.38
2022-12-04T01:34:28.332Z,102194.41
2022-12-04T01:36:55.224Z,102194.59
2022-12-04T01:39:22.102Z,102190.25
2022-12-04T01:41:49.166Z,102185.31
2022-12-04T01:44:25.857Z,102183.84
2022-12-04T01:46:56.122Z,102188.97
2022-12-04T01:49:35.687Z,102187.00
2022-12-04T01:52:09.635Z,102189.50
2022-12-04T01:54:44.069Z,102181.59
2022-12-04T01:57:21.448Z,102183.66
2022-12-04T01:59:57.408Z,102180.91
2022-12-04T02:02:37.603Z,102184.16
2022-12-04T02:05:09.843Z,102171.78
2022-12-04T02:07:38.701Z,102178.31
2022-12-04T02:10:08.830Z,102180.97
2022-12-04T02:13:13.196Z,102189.69
2022-12-04T02:15:54.438Z,102183.94
2022-12-04T02:18:35.381Z,102183.13
2022-12-04T02:21:29.003Z,102186.41
2022-12-04T02:24:03.647Z,102188.78
2022-12-04T02:26:44.835Z,102187.00
2022-12-04T02:29:44.186Z,102183.47
2022-12-04T02:32:28.832Z,102170.69
2022-12-04T02:35:17.797Z,102179.22
2022-12-04T02:37:49.228Z,102175.66
2022-12-04T02:40:37.113Z,102183.34
2022-12-04T02:43:16.451Z,102179.91
2022-12-04T02:46:00.652Z,102181.78
2022-12-04T02:48:32.069Z,102179.41
2022-12-04T02:51:01.020Z,102172.16
2022-12-04T02:53:50.748Z,102164.44
2022-12-04T02:56:24.395Z,102172.34
2022-12-04T02:59:10.220Z,102164.84
2022-12-04T03:01:43.867Z,102173.50
2022-12-04T03:04:19.155Z,102160.59
2022-12-04T03:06:51.051Z,102176.91
2022-12-04T03:09:35.694Z,102165.72
2022-12-04T03:12:16.777Z,102160.41
2022-12-04T03:14:57.494Z,102151.00
2022-12-04T03:17:33.099Z,102157.03
2022-12-04T03:20:06.264Z,102145.94
2022-12-04T03:22:36.982Z,102151.91
2022-12-04T03:25:06.590Z,102159.97
2022-12-04T03:27:51.301Z,102154.34
2022-12-04T03:30:21.955Z,102150.44
2022-12-04T03:33:03.413Z,102147.97
2022-12-04T03:35:41.083Z,102141.94
2022-12-04T03:38:23.418Z,102140.16
2022-12-04T03:41:02.127Z,102146.09
2022-12-04T03:43:53.710Z,102144.53
2022-12-04T03:46:45.985Z,102140.97
2022-12-04T03:49:24.080Z,102140.78
2022-12-04T03:52:13.398Z,102143.94
2022-12-04T03:54:58.054Z,102136.25
2022-12-04T03:57:31.096Z,102136.25
2022-12-04T04:00:07.159Z,102138.69
2022-12-04T04:02:41.813Z,102133.09
2022-12-04T04:05:11.409Z,102122.56
2022-12-04T04:07:48.992Z,102124.63
2022-12-04T04:10:21.871Z,102137.22
2022-12-04T04:13:19.084Z,102136.22
2022-12-04T04:16:11.704Z,102131.03
2022-12-04T04:18:58.421Z,102123.44
2022-12-04T04:21:49.687Z,102125.31
2022-12-04T04:24:37.813Z,102127.06
2022-12-04T04:27:05.685Z,102125.31
2022-12-04T04:29:32.708Z,102127.06
2022-12-04T04:32:17.876Z,102144.66
2022-12-04T04:35:17.339Z,102122.97
2022-12-04T04:38:03.753Z,102124.72
2022-12-04T04:40:41.949Z,102123.69
2022-12-04T04:43:23.340Z,102127.22
2022-12-04T04:46:03.838Z,102134.31
2022-12-04T04:48:44.010Z,102110.00
2022-12-04T04:51:11.605Z,102119.97
2022-12-04T04:53:59.223Z,102111.28
2022-12-04T04:56:27.637Z,102111.38
2022-12-04T04:58:54.605Z,102119.28
2022-12-04T05:01:25.148Z,102116.00
2022-12-04T05:03:52.096Z,102117.75
2022-12-04T05:06:19.137Z,102124.50
2022-12-04T05:08:47.140Z,102122.84
2022-12-04T05:11:16.107Z,102117.94
2022-12-04T05:13:43.285Z,102123.47
2022-12-04T05:16:13.942Z,102127.09
2022-12-04T05:18:41.448Z,102127.38
2022-12-04T05:21:16.067Z,102132.50
2022-12-04T05:23:42.957Z,102119.66
2022-12-04T05:26:11.398Z,102117.97
2022-12-04T05:28:39.554Z,102125.78
2022-12-04T05:31:06.637Z,102121.44
2022-12-04T05:33:33.538Z,102121.53
2022-12-04T05:36:09.653Z,102112.03
2022-12-04T05:38:37.462Z,102106.72
2022-12-04T05:41:06.426Z,102104.16
2022-12-04T05:43:34.204Z,102116.47
2022-12-04T05:46:05.792Z,102113.91
2022-12-04T05:48:35.472Z,102116.53
2022-12-04T05:51:10.501Z,102118.41
2022-12-04T05:53:38.081Z,102110.78
2022-12-04T05:56:07.367Z,102122.41
2022-12-04T05:58:36.628Z,102106.19
2022-12-04T06:01:13.431Z,102111.94
2022-12-04T06:03:40.322Z,102116.03
2022-12-04T06:06:22.832Z,102115.13
2022-12-04T06:08:57.113Z,102118.50
2022-12-04T06:11:32.410Z,102113.53
2022-12-04T06:14:01.049Z,102114.63
2022-12-04T06:16:32.247Z,102102.53
2022-12-04T06:19:03.586Z,102108.06
2022-12-04T06:21:33.249Z,102110.00
2022-12-04T06:24:00.374Z,102110.97
2022-12-04T06:26:27.672Z,102119.56
2022-12-04T06:28:59.072Z,102104.13
2022-12-04T06:31:29.804Z,102119.13
2022-12-04T06:33:57.810Z,102126.78
2022-12-04T06:36:25.403Z,102120.72
2022-12-04T06:38:54.858Z,102123.22
2022-12-04T06:41:22.657Z,102119.78
2022-12-04T06:43:51.292Z,102122.41
2022-12-04T06:46:30.474Z,102110.19
2022-12-04T06:48:59.062Z,102118.09
2022-12-04T06:51:32.650Z,102112.84
2022-12-04T06:54:00.813Z,102114.25
2022-12-04T06:56:31.356Z,102106.28
2022-12-04T06:59:01.549Z,102117.47
2022-12-04T07:01:31.520Z,102109.13
2022-12-04T07:03:59.286Z,102108.50
2022-12-04T07:06:29.258Z,102112.78
2022-12-04T07:09:00.851Z,102109.66
2022-12-04T07:11:28.476Z,102108.06
2022-12-04T07:13:56.099Z,102108.56
2022-12-04T07:16:24.874Z,102111.84
2022-12-04T07:18:53.849Z,102118.69
2022-12-04T07:21:23.888Z,102111.84
2022-12-04T07:23:54.238Z,102107.78
2022-12-04T07:26:21.843Z,102114.69
2022-12-04T07:28:49.573Z,102107.88
2022-12-04T07:31:22.444Z,102113.28
2022-12-04T07:33:50.338Z,102113.28
2022-12-04T07:36:20.532Z,102115.84
2022-12-04T07:38:47.611Z,102122.69
2022-12-04T07:41:15.065Z,102111.69
2022-12-04T07:43:42.351Z,102115.25
2022-12-04T07:46:16.876Z,102112.78
2022-12-04T07:48:43.870Z,102121.38
2022-12-04T07:51:13.477Z,102117.72
2022-12-04T07:53:41.075Z,102109.47
2022-12-04T07:56:08.656Z,102113.00
2022-12-04T07:58:35.762Z,102108.56
2022-12-04T08:01:15.181Z,102114.53
2022-12-04T08:03:47.646Z,102120.56
2022-12-04T08:06:20.522Z,102131.94
2022-12-04T08:08:48.449Z,102128.66
2022-12-04T08:11:19.888Z,102119.69
2022-12-04T08:13:46.751Z,102120.94
2022-12-04T08:16:14.368Z,102127.13
2022-12-04T08:18:46.450Z,102131.38
2022-12-04T08:21:17.392Z,102136.28
2022-12-04T08:23:45.034Z,102147.00
2022-12-04T08:26:12.837Z,102142.56
2022-12-04T08:28:40.708Z,102138.94
2022-12-04T08:31:16.058Z,102139.56
2022-12-04T08:33:45.181Z,102141.25
2022-12-04T08:36:15.832Z,102148.97
2022-12-04T08:38:42.826Z,102127.13
2022-12-04T08:41:13.664Z,102141.16
2022-12-04T08:43:41.217Z,102138.50
2022-12-04T08:46:15.089Z,102154.03
2022-12-04T08:48:42.518Z,102146.47
2022-12-04T08:51:15.868Z,102147.81
2022-12-04T08:53:42.969Z,102151.72
2022-12-04T08:56:10.024Z,102146.72
2022-12-04T08:58:37.227Z,102146.19
2022-12-04T09:01:09.698Z,102142.72
2022-12-04T09:03:36.763Z,102150.38
2022-12-04T09:06:05.833Z,102151.88
2022-12-04T09:08:33.429Z,102150.91
2022-12-04T09:11:17.306Z,102149.03
2022-12-04T09:13:44.917Z,102149.84
2022-12-04T09:16:19.570Z,102140.44
2022-12-04T09:18:47.249Z,102147.44
2022-12-04T09:21:17.118Z,102135.44
2022-12-04T09:23:44.600Z,102139.81
2022-12-04T09:26:24.480Z,102137.16
2022-12-04T09:28:53.051Z,102135.38
2022-12-04T09:31:21.116Z,102144.97
2022-12-04T09:33:48.546Z,102135.09
2022-12-04T09:36:16.316Z,102129.28
2022-12-04T09:38:46.075Z,102121.56
2022-12-04T09:41:50.675Z,102131.66
2022-12-04T09:44:45.974Z,102102.97
2022-12-04T09:47:27.111Z,102123.28
2022-12-04T09:50:01.184Z,102113.94
2022-12-04T09:53:00.052Z,102118.38
2022-12-04T09:55:56.244Z,102104.78
2022-12-04T09:59:11.594Z,102113.44
2022-12-04T10:02:28.726Z,102103.22
2022-12-04T10:04:56.675Z,102097.44
2022-12-04T10:07:33.850Z,102106.84
2022-12-04T10:10:29.882Z,102087.38
2022-12-04T10:13:31.312Z,102087.66
2022-12-04T10:16:21.360Z,102097.88
2022-12-04T10:18:59.168Z,102097.06
2022-12-04T10:21:41.470Z,102096.47
2022-12-04T10:24:16.967Z,102092.19
2022-12-04T10:26:49.027Z,102093.34
2022-12-04T10:29:27.975Z,102090.75
2022-12-04T10:31:57.349Z,102087.38
2022-12-04T10:34:28.991Z,102079.47
2022-12-04T10:37:02.179Z,102086.75
2022-12-04T10:39:39.829Z,102074.13
2022-12-04T10:42:47.043Z,102077.59
2022-12-04T10:45:14.242Z,102083.78
2022-12-04T10:47:48.597Z,102077.84
2022-12-04T10:50:25.451Z,102084.91
2022-12-04T10:52:52.370Z,102081.81
2022-12-04T10:55:34.974Z,102084.69
2022-12-04T10:58:02.877Z,102085.91
2022-12-04T11:00:35.348Z,102079.22
2022-12-04T11:03:19.139Z,102057.16
2022-12-04T11:06:04.905Z,102074.53
2022-12-04T11:08:42.235Z,102076.81
2022-12-04T11:11:14.825Z,102077.78
2022-12-04T11:13:42.569Z,102088.16
2022-12-04T11:16:40.328Z,102080.19
2022-12-04T11:19:39.521Z,102082.78
2022-12-04T11:22:16.565Z,102081.88
2022-12-04T11:24:50.258Z,102077.63
2022-12-04T11:27:25.470Z,102068.09
2022-12-04T11:29:52.439Z,102076.72
2022-12-04T11:32:38.789Z,102069.69
2022-12-04T11:35:21.623Z,102053.94
2022-12-04T11:38:01.413Z,102069.06
2022-12-04T11:40:28.953Z,102058.91
2022-12-04T11:43:10.075Z,102057.47
2022-12-04T11:45:37.150Z,102053.38
2022-12-04T11:48:15.923Z,102054.31
2022-12-04T11:51:37.926Z,102036.38
2022-12-04T11:54:16.724Z,102044.09
2022-12-04T11:56:48.245Z,102046.78
2022-12-04T11:59:56.640Z,102039.84
2022-12-04T12:02:53.627Z,102039.69
2022-12-04T12:05:46.615Z,102032.03
2022-12-04T12:08:54.787Z,102032.03
2022-12-04T12:11:39.007Z,102034.69
2022-12-04T12:14:25.411Z,102033.69
2022-12-04T12:17:15.963Z,102031.84
2022-12-04T12:20:24.581Z,102032.03
2022-12-04T12:23:09.186Z,102035.41
2022-12-04T12:26:09.392Z,102015.75
2022-12-04T12:29:14.340Z,102022.03
2022-12-04T12:32:25.473Z,102020.44
2022-12-04T12:34:52.561Z,102020.44
2022-12-04T12:37:28.826Z,102027.53
2022-12-04T12:40:31.605Z,102029.28
2022-12-04T12:43:06.500Z,102026.56
2022-12-04T12:45:49.800Z,102032.09
2022-12-04T12:48:25.487Z,102032.16
2022-12-04T12:51:22.264Z,102028.84
2022-12-04T12:53:51.399Z,102012.13
2022-12-04T12:56:38.340Z,102019.50
2022-12-04T12:59:12.702Z,102022.31
2022-12-04T13:01:48.484Z,102022.25
2022-12-04T13:04:44.088Z,102013.63
2022-12-04T13:07:16.991Z,102019.66
2022-12-04T13:10:04.447Z,102025.50
2022-12-04T13:12:51.816Z,102007.03
2022-12-04T13:15:23.202Z,102020.09
2022-12-04T13:17:53.228Z,102007.34
2022-12-04T13:20:35.907Z,102004.84
2022-12-04T13:23:42.918Z,101998.97
2022-12-04T13:26:51.415Z,101999.13
2022-12-04T13:29:49.213Z,101994.06
2022-12-04T13:32:46.335Z,101989.69
2022-12-04T13:35:51.240Z,101986.22
2022-12-04T13:38:47.878Z,101987.03
2022-12-04T13:41:21.781Z,101978.41
2022-12-04T13:43:50.514Z,101985.44
2022-12-04T13:46:41.102Z,101989.53
2022-12-04T13:49:37.977Z,101979.22
2022-12-04T13:52:21.901Z,101987.03
2022-12-04T13:54:59.775Z,101982.78
2022-12-04T13:57:28.294Z,101976.72
2022-12-04T14:00:25.807Z,101973.97
2022-12-04T14:02:57.239Z,101988.72
2022-12-04T14:05:33.419Z,101980.09
2022-12-04T14:08:24.444Z,101988.31
2022-12-04T14:11:07.645Z,101985.47
2022-12-04T14:13:46.173Z,101995.03
2022-12-04T14:16:28.962Z,101990.13
2022-12-04T14:19:02.449Z,101995.34
2022-12-04T14:21:47.485Z,102004.03
2022-12-04T14:24:38.702Z,102011.03
2022-12-04T14:27:34.902Z,102011.13
2022-12-04T14:30:02.907Z,102011.22
2022-12-04T14:32:34.231Z,102019.75
2022-12-04T14:35:02.021Z,101993.66
2022-12-04T14:37:37.924Z,102012.50
2022-12-04T14:40:07.598Z,102009.91
2022-12-04T14:42:38.532Z,102009.03
2022-12-04T14:45:20.659Z,102014.41
2022-12-04T14:48:45.697Z,102015.31
2022-12-04T14:51:33.242Z,102012.50
2022-12-04T14:54:50.384Z,102013.94
2022-12-04T14:57:53.153Z,102016.19
2022-12-04T15:00:23.112Z,102006.63
2022-12-04T15:02:55.532Z,102005.59
2022-12-04T15:05:25.950Z,101996.16
2022-12-04T15:08:04.385Z,101998.88
2022-12-04T15:10:53.148Z,102004.91
2022-12-04T15:13:31.968Z,101998.59
2022-12-04T15:16:20.248Z,101999.31
2022-12-04T15:19:00.940Z,101997.47
2022-12-04T15:21:46.300Z,101997.38
2022-12-04T15:24:24.261Z,101992.31
2022-12-04T15:26:53.352Z,101972.41
2022-12-04T15:29:26.028Z,101973.53
2022-12-04T15:31:58.557Z,101977.13
2022-12-04T15:34:37.326Z,101977.22
2022-12-04T15:37:09.160Z,101963.94
2022-12-04T15:39:38.042Z,101975.28
2022-12-04T15:42:22.860Z,101972.66
2022-12-04T15:45:08.578Z,101970.81
2022-12-04T15:47:41.363Z,101967.31
2022-12-04T15:50:29.402Z,101972.56
2022-12-04T15:53:01.950Z,101967.31
2022-12-04T15:55:42.932Z,101974.75
2022-12-04T15:58:22.443Z,101963.91
2022-12-04T16:01:00.640Z,101963.00
2022-12-04T16:03:42.441Z,101970.00
2022-12-04T16:06:28.769Z,101969.22
2022-12-04T16:09:12.450Z,101957.28
2022-12-04T16:11:40.126Z,101971.94
2022-12-04T16:14:12.535Z,101969.69
2022-12-04T16:16:44.148Z,101971.53
2022-12-04T16:19:34.605Z,101972.66
2022-12-04T16:22:04.386Z,101972.84
2022-12-04T16:24:31.295Z,101968.03
2022-12-04T16:27:00.437Z,101962.06
2022-12-04T16:29:27.344Z,101948.03
2022-12-04T16:31:57.189Z,101957.84
2022-12-04T16:34:29.526Z,101956.16
2022-12-04T16:36:56.620Z,101963.09
2022-12-04T16:39:23.492Z,101963.09
2022-12-04T16:41:50.381Z,101963.16
2022-12-04T16:44:17.299Z,101969.38
2022-12-04T16:46:45.292Z,101955.28
2022-12-04T16:49:12.922Z,101954.78
2022-12-04T16:51:46.155Z,101974.44
2022-12-04T16:54:13.976Z,101964.13
2022-12-04T16:56:41.694Z,101973.34
2022-12-04T16:59:11.959Z,101968.19
2022-12-04T17:01:47.029Z,101968.19
2022-12-04T17:04:15.178Z,101968.91
2022-12-04T17:06:42.302Z,101963.91
2022-12-04T17:09:09.795Z,101957.78
2022-12-04T17:11:37.424Z,101966.81
2022-12-04T17:14:07.139Z,101958.00
2022-12-04T17:16:41.620Z,101966.84
2022-12-04T17:19:10.447Z,101965.38
2022-12-04T17:21:38.335Z,101978.22
2022-12-04T17:24:05.834Z,101980.06
2022-12-04T17:26:32.738Z,101976.81
2022-12-04T17:28:59.600Z,101979.47
2022-12-04T17:31:27.155Z,101985.38
2022-12-04T17:33:54.116Z,101979.84
2022-12-04T17:36:25.696Z,101983.44
2022-12-04T17:38:55.868Z,101981.69
2022-12-04T17:41:23.168Z,101985.47
2022-12-04T17:43:50.237Z,101983.09
2022-12-04T17:46:21.617Z,101986.00
2022-12-04T17:48:49.392Z,101988.66
2022-12-04T17:51:22.239Z,101985.09
2022-12-04T17:53:49.474Z,101981.47
2022-12-04T17:56:20.951Z,101974.56
2022-12-04T17:58:48.797Z,101975.44
2022-12-04T18:01:27.821Z,101977.00
2022-12-04T18:03:59.408Z,101965.75
2022-12-04T18:06:33.417Z,101965.03
2022-12-04T18:09:00.517Z,101964.25
2022-12-04T18:11:30.553Z,101964.38
2022-12-04T18:14:10.093Z,101963.66
2022-12-04T18:16:42.795Z,101966.38
2022-12-04T18:19:11.009Z,101966.38
2022-12-04T18:21:37.956Z,101962.03
2022-12-04T18:24:06.337Z,101961.88
2022-12-04T18:26:39.822Z,101961.00
2022-12-04T18:29:07.329Z,101967.09
2022-12-04T18:31:34.689Z,101958.47
2022-12-04T18:34:01.837Z,101950.59
2022-12-04T18:36:30.879Z,101959.88
2022-12-04T18:39:01.463Z,101952.06
2022-12-04T18:41:29.531Z,101957.00
2022-12-04T18:43:57.441Z,101951.56
2022-12-04T18:46:25.744Z,101948.06
2022-12-04T18:48:58.990Z,101947.94
2022-12-04T18:51:35.540Z,101949.84
2022-12-04T18:54:06.504Z,101944.84
2022-12-04T18:56:35.311Z,101948.38
2022-12-04T18:59:07.099Z,101939.78
2022-12-04T19:01:34.285Z,101945.72
2022-12-04T19:04:04.838Z,101941.38
2022-12-04T19:06:35.783Z,101949.13
2022-12-04T19:09:11.039Z,101923.09
2022-12-04T19:11:39.610Z,101945.81
2022-12-04T19:14:16.132Z,101943.22
2022-12-04T19:16:48.583Z,101953.59
2022-12-04T19:19:15.571Z,101950.09
2022-12-04T19:21:42.628Z,101945.88
2022-12-04T19:24:10.649Z,101945.13
2022-12-04T19:26:38.314Z,101946.09
2022-12-04T19:29:06.893Z,101967.78
2022-12-04T19:31:37.073Z,101961.16
2022-12-04T19:34:05.127Z,101971.53
2022-12-04T19:36:33.770Z,101968.81
2022-12-04T19:39:01.601Z,101973.31
2022-12-04T19:41:31.130Z,101964.75
2022-12-04T19:44:00.116Z,101970.72
2022-12-04T19:46:30.890Z,101972.50
2022-12-04T19:49:03.184Z,101971.53
2022-12-04T19:51:34.366Z,101973.47
2022-12-04T19:54:01.525Z,101976.13
2022-12-04T19:56:31.260Z,101974.09
2022-12-04T19:59:01.944Z,101972.25
2022-12-04T20:01:32.229Z,101976.41
2022-12-04T20:04:03.056Z,101974.69
2022-12-04T20:06:34.965Z,101974.66
2022-12-04T20:09:05.754Z,101966.81
2022-12-04T20:11:33.108Z,101969.50
2022-12-04T20:14:02.011Z,101963.41
2022-12-04T20:16:31.353Z,101973.81
2022-12-04T20:18:59.270Z,101964.97
2022-12-04T20:21:30.218Z,101966.81
2022-12-04T20:24:00.895Z,101961.50
2022-12-04T20:26:32.450Z,101952.66
2022-12-04T20:29:00.954Z,101933.03
2022-12-04T20:31:34.625Z,101958.94
2022-12-04T20:34:08.060Z,101953.78
2022-12-04T20:36:42.112Z,101953.84
2022-12-04T20:39:11.548Z,101957.47
2022-12-04T20:41:38.877Z,101952.34
2022-12-04T20:44:08.110Z,101954.00
2022-12-04T20:46:38.967Z,101953.91
2022-12-04T20:49:09.710Z,101942.50
2022-12-04T20:51:40.934Z,101943.13
2022-12-04T20:54:11.502Z,101941.28
2022-12-04T20:56:38.581Z,101933.50
2022-12-04T20:59:10.171Z,101936.97
2022-12-04T21:01:37.382Z,101934.38
2022-12-04T21:04:05.351Z,101941.38
2022-12-04T21:06:36.648Z,101933.66
2022-12-04T21:09:11.618Z,101939.69
2022-12-04T21:11:48.366Z,101938.50
2022-12-04T21:14:45.323Z,101935.72
2022-12-04T21:17:19.259Z,101933.91
2022-12-04T21:19:49.645Z,101926.19
2022-12-04T21:22:18.777Z,101932.41
2022-12-04T21:24:45.656Z,101925.44
2022-12-04T21:27:18.899Z,101921.91
2022-12-04T21:29:45.930Z,101930.31
2022-12-04T21:32:12.818Z,101923.31
2022-12-04T21:34:39.681Z,101929.34
2022-12-04T21:37:06.795Z,101936.25
2022-12-04T21:39:33.862Z,101926.03
2022-12-04T21:42:19.195Z,101933.03
2022-12-04T21:44:46.684Z,101932.41
2022-12-04T21:47:13.577Z,101929.97
2022-12-04T21:49:40.444Z,101929.13
2022-12-04T21:52:07.354Z,101932.59
2022-12-04T21:54:34.234Z,101922.38
2022-12-04T21:57:01.136Z,101915.66
2022-12-04T21:59:28.064Z,101922.66
2022-12-04T22:01:55.077Z,101914.84
2022-12-04T22:04:22.688Z,101914.72
2022-12-04T22:06:49.956Z,101904.91
2022-12-04T22:09:17.453Z,101921.16
2022-12-04T22:11:44.380Z,101919.31
2022-12-04T22:14:12.642Z,101917.56
2022-12-04T22:16:42.770Z,101916.09
2022-12-04T22:19:11.950Z,101918.75
2022-12-04T22:21:39.346Z,101913.75
2022-12-04T22:24:06.912Z,101909.56
2022-12-04T22:26:34.094Z,101908.81
2022-12-04T22:29:00.975Z,101914.84
2022-12-04T22:31:29.924Z,101902.59
2022-12-04T22:34:00.456Z,101901.59
2022-12-04T22:36:31.542Z,101899.75
2022-12-04T22:39:09.894Z,101899.59
2022-12-04T22:41:37.762Z,101899.44
2022-12-04T22:44:05.452Z,101892.50
2022-12-04T22:46:32.893Z,101899.19
2022-12-04T22:49:00.411Z,101902.00
2022-12-04T22:51:27.866Z,101891.63
2022-12-04T22:53:57.651Z,101891.69
2022-12-04T22:56:28.130Z,101888.38
2022-12-04T22:58:56.298Z,101888.56
2022-12-04T23:01:27.227Z,101890.22
2022-12-04T23:03:55.007Z,101889.44
2022-12-04T23:06:25.920Z,101891.19
2022-12-04T23:09:00.030Z,101883.31
2022-12-04T23:11:28.028Z,101884.13
2022-12-04T23:14:00.170Z,101888.38
2022-12-04T23:16:29.748Z,101883.16
2022-12-04T23:18:57.487Z,101880.50
2022-12-04T23:21:24.843Z,101882.44
2022-12-04T23:23:53.210Z,101888.38
2022-12-04T23:26:23.808Z,101888.38
2022-12-04T23:28:50.983Z,101888.25
2022-12-04T23:31:18.480Z,101890.97
2022-12-04T23:33:45.632Z,101900.25
2022-12-04T23:36:13.424Z,101888.25
2022-12-04T23:38:42.212Z,101892.50
2022-12-04T23:41:17.648Z,101895.31
2022-12-04T23:43:45.770Z,101883.41
2022-12-04T23:46:15.522Z,101894.59
2022-12-04T23:48:44.462Z,101883.53
2022-12-04T23:51:14.699Z,101879.13
2022-12-04T23:53:42.410Z,101871.28
2022-12-04T23:56:21.585Z,101878.25
2022-12-04T23:58:50.854Z,101867.97
